sensor_id;sensor_type;location;lat;lon;timestamp;temperature;humidity
2282;DHT22;27486;48.77806476;9.16920056;2022-08-21T00:00:47;19.10;60.50
2282;DHT22;27486;48.77806476;9.16920056;2022-08-21T00:03:32;19.10;61.80
2282;DHT22;27486;48.77806476;9.16920056;2022-08-21T00:06:17;19.00;62.10
2282;DHT22;27486;48.77806476;9.16920056;2022-08-21T00:09:04;19.00;62.00
2282;DHT22;27486;48.77806476;9.16920056;2022-08-21T00:11:48;18.90;62.00
2282;DHT22;27486;48.77806476;9.16920056;2022-08-21T00:14:33;18.80;62.20
2282;DHT22;27486;48.77806476;9.16920056;2022-08-21T00:17:17;18.80;62.80
2282;DHT22;27486;48.77806476;9.16920056;2022-08-21T00:20:04;18.90;64.50
2282;DHT22;27486;48.77806476;9.16920056;2022-08-21T00:22:48;18.90;63.90
2282;DHT22;27486;48.77806476;9.16920056;2022-08-21T00:25:33;18.80;64.00
2282;DHT22;27486;48.77806476;9.16920056;2022-08-21T00:28:17;18.80;64.70
2282;DHT22;27486;48.77806476;9.16920056;2022-08-21T00:31:02;18.80;64.40
2282;DHT22;27486;48.77806476;9.16920056;2022-08-21T00:33:47;18.70;64.80
2282;DHT22;27486;48.77806476;9.16920056;2022-08-21T00:36:31;18.70;66.30
2282;DHT22;27486;48.77806476;9.16920056;2022-08-21T00:39:15;18.70;64.90
2282;DHT22;27486;48.77806476;9.16920056;2022-08-21T00:41:59;18.60;67.30
2282;DHT22;27486;48.77806476;9.16920056;2022-08-21T00:44:44;18.60;66.70
2282;DHT22;27486;48.77806476;9.16920056;2022-08-21T00:47:28;18.50;67.10
2282;DHT22;27486;48.77806476;9.16920056;2022-08-21T00:50:13;18.50;67.00
2282;DHT22;27486;48.77806476;9.16920056;2022-08-21T00:52:58;18.40;68.10
2282;DHT22;27486;48.77806476;9.16920056;2022-08-21T00:55:42;18.40;68.00
2282;DHT22;27486;48.77806476;9.16920056;2022-08-21T00:58:27;18.40;67.90
2282;DHT22;27486;48.77806476;9.16920056;2022-08-21T01:01:13;18.30;67.70
2282;DHT22;27486;48.77806476;9.16920056;2022-08-21T01:03:57;18.30;68.10
2282;DHT22;27486;48.77806476;9.16920056;2022-08-21T01:06:41;18.30;68.90
2282;DHT22;27486;48.77806476;9.16920056;2022-08-21T01:09:26;18.20;68.50
2282;DHT22;27486;48.77806476;9.16920056;2022-08-21T01:12:10;18.30;69.50
2282;DHT22;27486;48.77806476;9.16920056;2022-08-21T01:14:55;18.30;69.00
2282;DHT22;27486;48.77806476;9.16920056;2022-08-21T01:17:39;18.20;68.90
2282;DHT22;27486;48.77806476;9.16920056;2022-08-21T01:20:24;18.20;68.60
2282;DHT22;27486;48.77806476;9.16920056;2022-08-21T01:23:08;18.20;70.40
2282;DHT22;27486;48.77806476;9.16920056;2022-08-21T01:25:52;18.30;70.30
2282;DHT22;27486;48.77806476;9.16920056;2022-08-21T01:28:44;18.20;70.90
2282;DHT22;27486;48.77806476;9.16920056;2022-08-21T01:31:30;18.20;69.90
2282;DHT22;27486;48.77806476;9.16920056;2022-08-21T01:34:16;18.20;70.40
2282;DHT22;27486;48.77806476;9.16920056;2022-08-21T01:37:00;18.20;69.30
2282;DHT22;27486;48.77806476;9.16920056;2022-08-21T01:39:44;18.10;69.20
2282;DHT22;27486;48.77806476;9.16920056;2022-08-21T01:42:28;18.10;69.30
2282;DHT22;27486;48.77806476;9.16920056;2022-08-21T01:45:14;18.00;69.50
2282;DHT22;27486;48.77806476;9.16920056;2022-08-21T01:47:58;18.00;69.10
2282;DHT22;27486;48.77806476;9.16920056;2022-08-21T01:50:42;18.10;70.00
2282;DHT22;27486;48.77806476;9.16920056;2022-08-21T01:53:27;18.00;70.80
2282;DHT22;27486;48.77806476;9.16920056;2022-08-21T01:56:13;18.10;71.40
2282;DHT22;27486;48.77806476;9.16920056;2022-08-21T01:58:57;18.00;69.70
2282;DHT22;27486;48.77806476;9.16920056;2022-08-21T02:01:41;17.90;69.50
2282;DHT22;27486;48.77806476;9.16920056;2022-08-21T02:04:26;17.90;71.40
2282;DHT22;27486;48.77806476;9.16920056;2022-08-21T02:07:11;17.90;72.70
2282;DHT22;27486;48.77806476;9.16920056;2022-08-21T02:09:55;17.90;73.60
2282;DHT22;27486;48.77806476;9.16920056;2022-08-21T02:12:39;17.90;72.70
2282;DHT22;27486;48.77806476;9.16920056;2022-08-21T02:15:23;17.80;72.40
2282;DHT22;27486;48.77806476;9.16920056;2022-08-21T02:18:07;17.80;73.00
2282;DHT22;27486;48.77806476;9.16920056;2022-08-21T02:20:51;17.70;72.80
2282;DHT22;27486;48.77806476;9.16920056;2022-08-21T02:23:35;17.70;73.40
2282;DHT22;27486;48.77806476;9.16920056;2022-08-21T02:26:19;17.70;74.60
2282;DHT22;27486;48.77806476;9.16920056;2022-08-21T02:29:04;17.80;74.20
2282;DHT22;27486;48.77806476;9.16920056;2022-08-21T02:31:48;17.70;72.60
2282;DHT22;27486;48.77806476;9.16920056;2022-08-21T02:34:32;17.70;74.20
2282;DHT22;27486;48.77806476;9.16920056;2022-08-21T02:37:16;17.60;73.90
2282;DHT22;27486;48.77806476;9.16920056;2022-08-21T02:40:00;17.60;75.40
2282;DHT22;27486;48.77806476;9.16920056;2022-08-21T02:42:44;17.60;74.00
2282;DHT22;27486;48.77806476;9.16920056;2022-08-21T02:45:29;17.60;73.80
2282;DHT22;27486;48.77806476;9.16920056;2022-08-21T02:48:16;17.50;74.20
2282;DHT22;27486;48.77806476;9.16920056;2022-08-21T02:51:14;17.50;76.30
2282;DHT22;27486;48.77806476;9.16920056;2022-08-21T02:53:58;17.50;75.90
2282;DHT22;27486;48.77806476;9.16920056;2022-08-21T02:56:42;17.50;76.10
2282;DHT22;27486;48.77806476;9.16920056;2022-08-21T02:59:26;17.50;75.80
2282;DHT22;27486;48.77806476;9.16920056;2022-08-21T03:02:10;17.50;78.60
2282;DHT22;27486;48.77806476;9.16920056;2022-08-21T03:04:55;17.50;76.20
2282;DHT22;27486;48.77806476;9.16920056;2022-08-21T03:07:39;17.50;77.60
2282;DHT22;27486;48.77806476;9.16920056;2022-08-21T03:10:23;17.40;79.00
2282;DHT22;27486;48.77806476;9.16920056;2022-08-21T03:13:09;17.30;80.30
2282;DHT22;27486;48.77806476;9.16920056;2022-08-21T03:15:56;17.30;80.20
2282;DHT22;27486;48.77806476;9.16920056;2022-08-21T03:18:40;17.20;79.40
2282;DHT22;27486;48.77806476;9.16920056;2022-08-21T03:21:24;17.20;79.70
2282;DHT22;27486;48.77806476;9.16920056;2022-08-21T03:24:08;17.30;81.60
2282;DHT22;27486;48.77806476;9.16920056;2022-08-21T03:26:52;17.30;81.80
2282;DHT22;27486;48.77806476;9.16920056;2022-08-21T03:29:36;17.20;83.10
2282;DHT22;27486;48.77806476;9.16920056;2022-08-21T03:32:20;17.20;82.30
2282;DHT22;27486;48.77806476;9.16920056;2022-08-21T03:35:05;17.10;82.00
2282;DHT22;27486;48.77806476;9.16920056;2022-08-21T03:37:49;17.10;82.00
2282;DHT22;27486;48.77806476;9.16920056;2022-08-21T03:40:33;17.00;82.60
2282;DHT22;27486;48.77806476;9.16920056;2022-08-21T03:43:17;17.10;85.20
2282;DHT22;27486;48.77806476;9.16920056;2022-08-21T03:46:03;17.00;82.90
2282;DHT22;27486;48.77806476;9.16920056;2022-08-21T03:48:47;17.00;84.10
2282;DHT22;27486;48.77806476;9.16920056;2022-08-21T03:51:32;17.00;86.40
2282;DHT22;27486;48.77806476;9.16920056;2022-08-21T03:54:17;17.10;86.00
2282;DHT22;27486;48.77806476;9.16920056;2022-08-21T03:57:02;17.00;86.30
2282;DHT22;27486;48.77806476;9.16920056;2022-08-21T03:59:47;16.90;84.30
2282;DHT22;27486;48.77806476;9.16920056;2022-08-21T04:02:31;16.80;85.00
2282;DHT22;27486;48.77806476;9.16920056;2022-08-21T04:05:16;16.80;84.50
2282;DHT22;27486;48.77806476;9.16920056;2022-08-21T04:08:11;16.80;85.00
2282;DHT22;27486;48.77806476;9.16920056;2022-08-21T04:10:58;16.80;85.90
2282;DHT22;27486;48.77806476;9.16920056;2022-08-21T04:13:42;16.80;85.90
2282;DHT22;27486;48.77806476;9.16920056;2022-08-21T04:16:26;16.70;86.10
2282;DHT22;27486;48.77806476;9.16920056;2022-08-21T04:19:11;16.70;85.20
2282;DHT22;27486;48.77806476;9.16920056;2022-08-21T04:21:56;16.70;86.20
2282;DHT22;27486;48.77806476;9.16920056;2022-08-21T04:24:41;16.80;86.40
2282;DHT22;27486;48.77806476;9.16920056;2022-08-21T04:27:25;16.80;87.70
2282;DHT22;27486;48.77806476;9.16920056;2022-08-21T04:30:10;16.80;86.20
2282;DHT22;27486;48.77806476;9.16920056;2022-08-21T04:32:55;16.80;86.20
2282;DHT22;27486;48.77806476;9.16920056;2022-08-21T04:35:39;16.80;86.30
2282;DHT22;27486;48.77806476;9.16920056;2022-08-21T04:38:23;16.80;86.20
2282;DHT22;27486;48.77806476;9.16920056;2022-08-21T04:41:08;16.80;88.00
2282;DHT22;27486;48.77806476;9.16920056;2022-08-21T04:43:52;16.80;87.50
2282;DHT22;27486;48.77806476;9.16920056;2022-08-21T04:46:35;16.80;88.60
2282;DHT22;27486;48.77806476;9.16920056;2022-08-21T04:49:19;16.80;87.00
2282;DHT22;27486;48.77806476;9.16920056;2022-08-21T04:52:05;16.80;87.30
2282;DHT22;27486;48.77806476;9.16920056;2022-08-21T04:54:49;16.80;87.80
2282;DHT22;27486;48.77806476;9.16920056;2022-08-21T04:57:36;16.90;87.90
2282;DHT22;27486;48.77806476;9.16920056;2022-08-21T05:00:23;16.90;87.70
2282;DHT22;27486;48.77806476;9.16920056;2022-08-21T05:03:09;16.90;87.00
2282;DHT22;27486;48.77806476;9.16920056;2022-08-21T05:05:54;16.90;86.40
2282;DHT22;27486;48.77806476;9.16920056;2022-08-21T05:08:39;17.00;85.90
2282;DHT22;27486;48.77806476;9.16920056;2022-08-21T05:11:24;17.00;85.40
2282;DHT22;27486;48.77806476;9.16920056;2022-08-21T05:14:10;17.10;85.20
2282;DHT22;27486;48.77806476;9.16920056;2022-08-21T05:16:55;17.20;85.10
2282;DHT22;27486;48.77806476;9.16920056;2022-08-21T05:19:39;17.30;85.80
2282;DHT22;27486;48.77806476;9.16920056;2022-08-21T05:22:23;17.40;85.20
2282;DHT22;27486;48.77806476;9.16920056;2022-08-21T05:25:09;17.50;85.00
2282;DHT22;27486;48.77806476;9.16920056;2022-08-21T05:27:53;17.50;84.70
2282;DHT22;27486;48.77806476;9.16920056;2022-08-21T05:30:38;17.50;84.10
2282;DHT22;27486;48.77806476;9.16920056;2022-08-21T05:33:22;17.60;84.10
2282;DHT22;27486;48.77806476;9.16920056;2022-08-21T05:36:07;17.60;84.20
2282;DHT22;27486;48.77806476;9.16920056;2022-08-21T05:38:51;17.70;83.80
2282;DHT22;27486;48.77806476;9.16920056;2022-08-21T05:41:35;17.80;82.70
2282;DHT22;27486;48.77806476;9.16920056;2022-08-21T05:44:19;17.90;81.40
2282;DHT22;27486;48.77806476;9.16920056;2022-08-21T05:47:08;17.90;80.30
2282;DHT22;27486;48.77806476;9.16920056;2022-08-21T05:49:52;18.00;80.30
2282;DHT22;27486;48.77806476;9.16920056;2022-08-21T05:52:36;18.10;80.40
2282;DHT22;27486;48.77806476;9.16920056;2022-08-21T05:55:21;18.20;79.80
2282;DHT22;27486;48.77806476;9.16920056;2022-08-21T05:58:05;18.20;79.30
2282;DHT22;27486;48.77806476;9.16920056;2022-08-21T06:00:50;18.30;79.10
2282;DHT22;27486;48.77806476;9.16920056;2022-08-21T06:03:38;18.40;78.20
2282;DHT22;27486;48.77806476;9.16920056;2022-08-21T06:06:22;18.50;78.50
2282;DHT22;27486;48.77806476;9.16920056;2022-08-21T06:09:06;18.50;78.30
2282;DHT22;27486;48.77806476;9.16920056;2022-08-21T06:11:50;18.60;78.20
2282;DHT22;27486;48.77806476;9.16920056;2022-08-21T06:14:35;18.70;77.80
2282;DHT22;27486;48.77806476;9.16920056;2022-08-21T06:17:19;18.70;76.70
2282;DHT22;27486;48.77806476;9.16920056;2022-08-21T06:20:04;18.70;76.60
2282;DHT22;27486;48.77806476;9.16920056;2022-08-21T06:22:48;18.90;76.80
2282;DHT22;27486;48.77806476;9.16920056;2022-08-21T06:25:32;19.00;76.20
2282;DHT22;27486;48.77806476;9.16920056;2022-08-21T06:28:16;19.00;75.50
2282;DHT22;27486;48.77806476;9.16920056;2022-08-21T06:31:01;19.10;75.80
2282;DHT22;27486;48.77806476;9.16920056;2022-08-21T06:33:45;19.30;75.70
2282;DHT22;27486;48.77806476;9.16920056;2022-08-21T06:36:29;19.40;74.20
2282;DHT22;27486;48.77806476;9.16920056;2022-08-21T06:39:13;19.50;74.50
2282;DHT22;27486;48.77806476;9.16920056;2022-08-21T06:41:57;19.60;73.60
2282;DHT22;27486;48.77806476;9.16920056;2022-08-21T06:44:42;19.80;73.30
2282;DHT22;27486;48.77806476;9.16920056;2022-08-21T06:47:26;19.90;72.80
2282;DHT22;27486;48.77806476;9.16920056;2022-08-21T06:50:10;20.00;71.80
2282;DHT22;27486;48.77806476;9.16920056;2022-08-21T06:53:07;20.20;70.70
2282;DHT22;27486;48.77806476;9.16920056;2022-08-21T06:55:51;20.30;71.10
2282;DHT22;27486;48.77806476;9.16920056;2022-08-21T06:58:35;20.40;70.30
2282;DHT22;27486;48.77806476;9.16920056;2022-08-21T07:01:23;20.50;70.30
2282;DHT22;27486;48.77806476;9.16920056;2022-08-21T07:04:08;20.60;69.80
2282;DHT22;27486;48.77806476;9.16920056;2022-08-21T07:06:52;20.80;68.80
2282;DHT22;27486;48.77806476;9.16920056;2022-08-21T07:09:37;20.90;67.20
2282;DHT22;27486;48.77806476;9.16920056;2022-08-21T07:12:21;21.00;67.30
2282;DHT22;27486;48.77806476;9.16920056;2022-08-21T07:15:06;21.10;66.20
2282;DHT22;27486;48.77806476;9.16920056;2022-08-21T07:17:50;21.20;65.00
2282;DHT22;27486;48.77806476;9.16920056;2022-08-21T07:20:34;21.30;64.70
2282;DHT22;27486;48.77806476;9.16920056;2022-08-21T07:23:28;21.40;65.30
2282;DHT22;27486;48.77806476;9.16920056;2022-08-21T07:26:14;21.50;64.30
2282;DHT22;27486;48.77806476;9.16920056;2022-08-21T07:28:58;21.60;63.90
2282;DHT22;27486;48.77806476;9.16920056;2022-08-21T07:31:43;21.70;63.60
2282;DHT22;27486;48.77806476;9.16920056;2022-08-21T07:34:27;21.80;62.60
2282;DHT22;27486;48.77806476;9.16920056;2022-08-21T07:37:11;21.90;62.30
2282;DHT22;27486;48.77806476;9.16920056;2022-08-21T07:39:55;22.00;62.80
2282;DHT22;27486;48.77806476;9.16920056;2022-08-21T07:42:44;22.10;62.20
2282;DHT22;27486;48.77806476;9.16920056;2022-08-21T07:45:29;22.20;61.90
2282;DHT22;27486;48.77806476;9.16920056;2022-08-21T07:48:13;22.30;61.80
2282;DHT22;27486;48.77806476;9.16920056;2022-08-21T07:50:58;22.40;61.40
2282;DHT22;27486;48.77806476;9.16920056;2022-08-21T07:53:50;22.50;60.50
2282;DHT22;27486;48.77806476;9.16920056;2022-08-21T07:56:34;22.50;60.90
2282;DHT22;27486;48.77806476;9.16920056;2022-08-21T07:59:18;22.60;61.50
2282;DHT22;27486;48.77806476;9.16920056;2022-08-21T08:02:02;22.70;60.90
2282;DHT22;27486;48.77806476;9.16920056;2022-08-21T08:04:47;22.80;60.50
2282;DHT22;27486;48.77806476;9.16920056;2022-08-21T08:07:31;22.90;61.10
2282;DHT22;27486;48.77806476;9.16920056;2022-08-21T08:10:16;23.00;60.70
2282;DHT22;27486;48.77806476;9.16920056;2022-08-21T08:13:00;23.20;60.30
2282;DHT22;27486;48.77806476;9.16920056;2022-08-21T08:15:45;23.40;60.10
2282;DHT22;27486;48.77806476;9.16920056;2022-08-21T08:18:29;23.50;59.60
2282;DHT22;27486;48.77806476;9.16920056;2022-08-21T08:21:14;23.70;59.00
2282;DHT22;27486;48.77806476;9.16920056;2022-08-21T08:23:59;23.80;58.10
2282;DHT22;27486;48.77806476;9.16920056;2022-08-21T08:26:44;23.90;57.20
2282;DHT22;27486;48.77806476;9.16920056;2022-08-21T08:29:28;23.90;56.90
2282;DHT22;27486;48.77806476;9.16920056;2022-08-21T08:32:12;23.90;57.10
2282;DHT22;27486;48.77806476;9.16920056;2022-08-21T08:34:56;24.00;56.90
2282;DHT22;27486;48.77806476;9.16920056;2022-08-21T08:37:40;24.10;55.60
2282;DHT22;27486;48.77806476;9.16920056;2022-08-21T08:40:29;24.20;55.10
2282;DHT22;27486;48.77806476;9.16920056;2022-08-21T08:43:14;24.30;54.70
2282;DHT22;27486;48.77806476;9.16920056;2022-08-21T08:46:02;24.30;53.70
2282;DHT22;27486;48.77806476;9.16920056;2022-08-21T08:48:58;24.20;53.60
2282;DHT22;27486;48.77806476;9.16920056;2022-08-21T08:54:44;24.40;53.60
2282;DHT22;27486;48.77806476;9.16920056;2022-08-21T08:57:30;24.50;52.70
2282;DHT22;27486;48.77806476;9.16920056;2022-08-21T09:00:18;24.60;51.40
2282;DHT22;27486;48.77806476;9.16920056;2022-08-21T09:03:03;24.70;50.80
2282;DHT22;27486;48.77806476;9.16920056;2022-08-21T09:06:06;24.90;50.70
2282;DHT22;27486;48.77806476;9.16920056;2022-08-21T09:09:01;25.00;50.20
2282;DHT22;27486;48.77806476;9.16920056;2022-08-21T09:15:21;25.20;48.80
2282;DHT22;27486;48.77806476;9.16920056;2022-08-21T09:21:09;25.50;46.60
2282;DHT22;27486;48.77806476;9.16920056;2022-08-21T09:23:59;25.60;46.20
2282;DHT22;27486;48.77806476;9.16920056;2022-08-21T09:27:06;25.70;45.70
2282;DHT22;27486;48.77806476;9.16920056;2022-08-21T09:29:53;25.70;45.20
2282;DHT22;27486;48.77806476;9.16920056;2022-08-21T09:32:39;25.80;44.20
2282;DHT22;27486;48.77806476;9.16920056;2022-08-21T09:35:24;25.90;44.30
2282;DHT22;27486;48.77806476;9.16920056;2022-08-21T09:38:08;26.00;44.00
2282;DHT22;27486;48.77806476;9.16920056;2022-08-21T09:41:29;26.20;44.00
2282;DHT22;27486;48.77806476;9.16920056;2022-08-21T09:44:26;26.30;43.40
2282;DHT22;27486;48.77806476;9.16920056;2022-08-21T09:47:11;26.30;43.70
2282;DHT22;27486;48.77806476;9.16920056;2022-08-21T09:50:09;26.50;43.70
2282;DHT22;27486;48.77806476;9.16920056;2022-08-21T09:52:59;26.50;42.90
2282;DHT22;27486;48.77806476;9.16920056;2022-08-21T09:55:57;26.60;42.70
2282;DHT22;27486;48.77806476;9.16920056;2022-08-21T09:59:11;26.70;42.10
2282;DHT22;27486;48.77806476;9.16920056;2022-08-21T10:01:56;26.70;41.50
2282;DHT22;27486;48.77806476;9.16920056;2022-08-21T10:04:41;26.70;41.70
2282;DHT22;27486;48.77806476;9.16920056;2022-08-21T10:07:37;26.80;41.30
2282;DHT22;27486;48.77806476;9.16920056;2022-08-21T10:10:26;26.80;41.50
2282;DHT22;27486;48.77806476;9.16920056;2022-08-21T10:13:29;26.80;41.20
2282;DHT22;27486;48.77806476;9.16920056;2022-08-21T10:26:02;27.00;40.60
2282;DHT22;27486;48.77806476;9.16920056;2022-08-21T10:29:14;27.00;40.70
2282;DHT22;27486;48.77806476;9.16920056;2022-08-21T10:32:11;27.20;40.40
2282;DHT22;27486;48.77806476;9.16920056;2022-08-21T10:35:10;27.10;40.30
2282;DHT22;27486;48.77806476;9.16920056;2022-08-21T10:38:29;27.10;40.30
2282;DHT22;27486;48.77806476;9.16920056;2022-08-21T10:41:23;27.30;39.80
2282;DHT22;27486;48.77806476;9.16920056;2022-08-21T10:47:28;27.50;39.10
2282;DHT22;27486;48.77806476;9.16920056;2022-08-21T10:50:31;27.60;38.70
2282;DHT22;27486;48.77806476;9.16920056;2022-08-21T10:53:22;27.70;38.30
2282;DHT22;27486;48.77806476;9.16920056;2022-08-21T10:56:22;27.70;38.50
2282;DHT22;27486;48.77806476;9.16920056;2022-08-21T10:59:33;27.70;37.70
2282;DHT22;27486;48.77806476;9.16920056;2022-08-21T11:02:32;27.40;37.90
2282;DHT22;27486;48.77806476;9.16920056;2022-08-21T11:05:18;27.20;38.50
2282;DHT22;27486;48.77806476;9.16920056;2022-08-21T11:08:08;27.20;38.30
2282;DHT22;27486;48.77806476;9.16920056;2022-08-21T11:11:15;27.00;38.10
2282;DHT22;27486;48.77806476;9.16920056;2022-08-21T11:14:11;26.90;38.80
2282;DHT22;27486;48.77806476;9.16920056;2022-08-21T11:17:18;27.10;38.80
2282;DHT22;27486;48.77806476;9.16920056;2022-08-21T11:20:12;27.30;39.50
2282;DHT22;27486;48.77806476;9.16920056;2022-08-21T11:23:22;27.50;38.00
2282;DHT22;27486;48.77806476;9.16920056;2022-08-21T11:26:15;27.70;38.10
2282;DHT22;27486;48.77806476;9.16920056;2022-08-21T11:29:09;27.80;37.90
2282;DHT22;27486;48.77806476;9.16920056;2022-08-21T11:32:27;28.00;37.30
2282;DHT22;27486;48.77806476;9.16920056;2022-08-21T11:38:27;28.10;37.00
2282;DHT22;27486;48.77806476;9.16920056;2022-08-21T11:41:28;28.30;37.10
2282;DHT22;27486;48.77806476;9.16920056;2022-08-21T11:47:22;28.50;36.00
2282;DHT22;27486;48.77806476;9.16920056;2022-08-21T11:50:18;28.70;35.80
2282;DHT22;27486;48.77806476;9.16920056;2022-08-21T11:56:30;29.20;34.40
2282;DHT22;27486;48.77806476;9.16920056;2022-08-21T11:59:36;29.30;34.40
2282;DHT22;27486;48.77806476;9.16920056;2022-08-21T12:02:28;29.30;34.00
2282;DHT22;27486;48.77806476;9.16920056;2022-08-21T12:05:25;29.50;33.20
2282;DHT22;27486;48.77806476;9.16920056;2022-08-21T12:08:14;29.70;32.80
2282;DHT22;27486;48.77806476;9.16920056;2022-08-21T12:11:06;29.70;33.00
2282;DHT22;27486;48.77806476;9.16920056;2022-08-21T12:16:46;29.80;32.60
2282;DHT22;27486;48.77806476;9.16920056;2022-08-21T12:19:31;30.10;32.40
2282;DHT22;27486;48.77806476;9.16920056;2022-08-21T12:22:15;30.40;31.50
2282;DHT22;27486;48.77806476;9.16920056;2022-08-21T12:25:06;30.70;31.00
2282;DHT22;27486;48.77806476;9.16920056;2022-08-21T12:27:53;30.90;30.00
2282;DHT22;27486;48.77806476;9.16920056;2022-08-21T12:30:45;31.00;29.90
2282;DHT22;27486;48.77806476;9.16920056;2022-08-21T12:33:37;31.20;29.90
2282;DHT22;27486;48.77806476;9.16920056;2022-08-21T12:36:25;31.30;29.20
2282;DHT22;27486;48.77806476;9.16920056;2022-08-21T12:39:17;31.20;29.30
2282;DHT22;27486;48.77806476;9.16920056;2022-08-21T12:45:31;31.60;29.40
2282;DHT22;27486;48.77806476;9.16920056;2022-08-21T12:48:29;31.80;29.20
2282;DHT22;27486;48.77806476;9.16920056;2022-08-21T12:51:22;32.00;28.60
2282;DHT22;27486;48.77806476;9.16920056;2022-08-21T12:54:07;32.10;28.10
2282;DHT22;27486;48.77806476;9.16920056;2022-08-21T12:57:04;32.10;27.90
2282;DHT22;27486;48.77806476;9.16920056;2022-08-21T12:59:56;32.20;27.70
2282;DHT22;27486;48.77806476;9.16920056;2022-08-21T13:02:47;32.00;27.60
2282;DHT22;27486;48.77806476;9.16920056;2022-08-21T13:05:36;31.50;28.30
2282;DHT22;27486;48.77806476;9.16920056;2022-08-21T13:08:21;31.50;28.20
2282;DHT22;27486;48.77806476;9.16920056;2022-08-21T13:11:07;31.60;28.20
2282;DHT22;27486;48.77806476;9.16920056;2022-08-21T13:13:53;31.20;28.10
2282;DHT22;27486;48.77806476;9.16920056;2022-08-21T13:16:37;30.60;28.50
2282;DHT22;27486;48.77806476;9.16920056;2022-08-21T13:19:21;30.20;29.00
2282;DHT22;27486;48.77806476;9.16920056;2022-08-21T13:22:13;29.90;29.50
2282;DHT22;27486;48.77806476;9.16920056;2022-08-21T13:24:57;29.70;29.90
2282;DHT22;27486;48.77806476;9.16920056;2022-08-21T13:27:43;29.40;30.00
2282;DHT22;27486;48.77806476;9.16920056;2022-08-21T13:30:27;29.10;30.40
2282;DHT22;27486;48.77806476;9.16920056;2022-08-21T13:33:14;29.10;30.60
2282;DHT22;27486;48.77806476;9.16920056;2022-08-21T13:38:44;28.70;31.30
2282;DHT22;27486;48.77806476;9.16920056;2022-08-21T13:41:31;28.70;31.20
2282;DHT22;27486;48.77806476;9.16920056;2022-08-21T13:44:24;28.80;31.00
2282;DHT22;27486;48.77806476;9.16920056;2022-08-21T13:47:16;28.80;30.60
2282;DHT22;27486;48.77806476;9.16920056;2022-08-21T13:50:02;29.00;30.50
2282;DHT22;27486;48.77806476;9.16920056;2022-08-21T13:52:57;29.10;30.50
2282;DHT22;27486;48.77806476;9.16920056;2022-08-21T13:55:43;29.40;30.40
2282;DHT22;27486;48.77806476;9.16920056;2022-08-21T13:58:30;29.80;30.00
2282;DHT22;27486;48.77806476;9.16920056;2022-08-21T14:01:23;30.20;29.60
2282;DHT22;27486;48.77806476;9.16920056;2022-08-21T14:04:18;30.60;28.80
2282;DHT22;27486;48.77806476;9.16920056;2022-08-21T14:07:19;31.10;28.50
2282;DHT22;27486;48.77806476;9.16920056;2022-08-21T14:10:07;31.50;27.80
2282;DHT22;27486;48.77806476;9.16920056;2022-08-21T14:12:58;32.00;27.30
2282;DHT22;27486;48.77806476;9.16920056;2022-08-21T14:15:55;32.10;27.00
2282;DHT22;27486;48.77806476;9.16920056;2022-08-21T14:21:40;34.00;25.60
2282;DHT22;27486;48.77806476;9.16920056;2022-08-21T14:24:29;35.10;24.40
2282;DHT22;27486;48.77806476;9.16920056;2022-08-21T14:27:17;35.60;23.50
2282;DHT22;27486;48.77806476;9.16920056;2022-08-21T14:30:10;36.40;23.10
2282;DHT22;27486;48.77806476;9.16920056;2022-08-21T14:32:55;37.60;21.90
2282;DHT22;27486;48.77806476;9.16920056;2022-08-21T14:35:40;38.20;20.80
2282;DHT22;27486;48.77806476;9.16920056;2022-08-21T14:38:26;38.90;20.40
2282;DHT22;27486;48.77806476;9.16920056;2022-08-21T14:41:23;39.50;20.40
2282;DHT22;27486;48.77806476;9.16920056;2022-08-21T14:44:08;41.10;18.80
2282;DHT22;27486;48.77806476;9.16920056;2022-08-21T14:46:53;42.30;17.90
2282;DHT22;27486;48.77806476;9.16920056;2022-08-21T14:49:39;43.30;16.80
2282;DHT22;27486;48.77806476;9.16920056;2022-08-21T14:52:23;44.30;16.10
2282;DHT22;27486;48.77806476;9.16920056;2022-08-21T14:55:08;45.50;15.30
2282;DHT22;27486;48.77806476;9.16920056;2022-08-21T14:57:57;46.50;14.40
2282;DHT22;27486;48.77806476;9.16920056;2022-08-21T15:00:41;47.40;13.70
2282;DHT22;27486;48.77806476;9.16920056;2022-08-21T15:03:25;48.10;12.90
2282;DHT22;27486;48.77806476;9.16920056;2022-08-21T15:06:10;49.30;12.60
2282;DHT22;27486;48.77806476;9.16920056;2022-08-21T15:08:54;50.40;12.10
2282;DHT22;27486;48.77806476;9.16920056;2022-08-21T15:11:38;51.60;11.40
2282;DHT22;27486;48.77806476;9.16920056;2022-08-21T15:14:26;51.90;10.90
2282;DHT22;27486;48.77806476;9.16920056;2022-08-21T15:17:11;50.40;10.50
2282;DHT22;27486;48.77806476;9.16920056;2022-08-21T15:19:56;47.10;11.50
2282;DHT22;27486;48.77806476;9.16920056;2022-08-21T15:22:40;44.30;12.90
2282;DHT22;27486;48.77806476;9.16920056;2022-08-21T15:25:24;42.50;14.10
2282;DHT22;27486;48.77806476;9.16920056;2022-08-21T15:28:09;42.90;14.40
2282;DHT22;27486;48.77806476;9.16920056;2022-08-21T15:30:53;45.00;13.60
2282;DHT22;27486;48.77806476;9.16920056;2022-08-21T15:33:37;46.90;12.80
2282;DHT22;27486;48.77806476;9.16920056;2022-08-21T15:36:21;48.50;12.10
2282;DHT22;27486;48.77806476;9.16920056;2022-08-21T15:39:05;49.30;11.40
2282;DHT22;27486;48.77806476;9.16920056;2022-08-21T15:41:49;49.90;11.00
2282;DHT22;27486;48.77806476;9.16920056;2022-08-21T15:44:33;50.30;10.70
2282;DHT22;27486;48.77806476;9.16920056;2022-08-21T15:47:25;50.60;10.50
2282;DHT22;27486;48.77806476;9.16920056;2022-08-21T15:50:11;51.00;10.30
2282;DHT22;27486;48.77806476;9.16920056;2022-08-21T15:52:56;51.40;10.10
2282;DHT22;27486;48.77806476;9.16920056;2022-08-21T15:55:40;51.50;9.90
2282;DHT22;27486;48.77806476;9.16920056;2022-08-21T15:58:25;51.50;9.80
2282;DHT22;27486;48.77806476;9.16920056;2022-08-21T16:01:09;51.20;9.70
2282;DHT22;27486;48.77806476;9.16920056;2022-08-21T16:03:54;51.00;9.70
2282;DHT22;27486;48.77806476;9.16920056;2022-08-21T16:06:38;49.60;9.90
2282;DHT22;27486;48.77806476;9.16920056;2022-08-21T16:09:23;48.70;10.40